createdAt,value
2019-03-13T03:34:27.706Z,25.90
2019-03-13T03:36:57.495Z,25.90
2019-03-13T03:39:27.275Z,25.90
2019-03-13T03:41:57.163Z,25.90
2019-03-13T03:44:26.938Z,25.80
2019-03-13T03:46:56.723Z,25.90
2019-03-13T03:49:26.564Z,25.90
2019-03-13T03:51:56.378Z,25.90
2019-03-13T03:54:26.153Z,25.90
2019-03-13T03:56:56.087Z,25.90
2019-03-13T03:59:25.943Z,25.90
2019-03-13T04:01:55.802Z,25.90
2019-03-13T04:04:25.579Z,25.80
2019-03-13T04:06:55.447Z,25.90
2019-03-13T04:09:25.885Z,25.90
2019-03-13T04:11:56.552Z,25.90
2019-03-13T04:14:26.324Z,25.90
2019-03-13T04:16:56.122Z,25.90
2019-03-13T04:19:25.897Z,25.90
2019-03-13T04:21:55.756Z,25.90
2019-03-13T04:24:25.625Z,25.90
2019-03-13T04:26:55.401Z,25.90
2019-03-13T04:29:25.292Z,25.90
2019-03-13T04:31:59.871Z,25.90
2019-03-13T04:34:31.081Z,25.90
2019-03-13T04:37:01.497Z,25.90
2019-03-13T04:39:31.366Z,25.90
2019-03-13T04:42:01.173Z,25.90
2019-03-13T04:44:30.958Z,25.90
2019-03-13T04:47:01.177Z,25.90
2019-03-13T04:49:30.969Z,25.90
2019-03-13T04:52:02.190Z,25.90
2019-03-13T04:54:32.026Z,25.90
2019-03-13T04:57:01.819Z,25.90
2019-03-13T04:59:31.650Z,26.30
2019-03-13T05:02:01.554Z,25.90
2019-03-13T05:04:34.377Z,25.90
2019-03-13T05:07:04.163Z,25.90
2019-03-13T05:09:40.536Z,25.90
2019-03-13T05:12:10.509Z,25.90
2019-03-13T05:14:40.874Z,25.90
2019-03-13T05:17:10.725Z,25.90
2019-03-13T05:19:40.482Z,25.90
2019-03-13T05:22:10.348Z,25.90
2019-03-13T05:24:41.546Z,25.90
2019-03-13T05:27:11.590Z,25.90
2019-03-13T05:29:41.478Z,25.90
2019-03-13T05:32:12.523Z,25.90
2019-03-13T05:34:43.634Z,25.90
2019-03-13T05:37:13.455Z,25.90
2019-03-13T05:39:43.260Z,25.90
2019-03-13T05:42:13.128Z,25.90
2019-03-13T05:44:42.917Z,25.90
2019-03-13T05:47:12.715Z,26.00
2019-03-13T05:49:43.530Z,25.90
2019-03-13T05:52:13.447Z,26.40
2019-03-13T05:54:43.259Z,25.90
2019-03-13T05:57:13.166Z,26.00
2019-03-13T05:59:43.035Z,26.00
2019-03-13T06:02:14.371Z,26.10
2019-03-13T06:04:44.163Z,26.00
2019-03-13T06:07:14.056Z,26.00
2019-03-13T06:09:43.867Z,26.00
2019-03-13T06:12:13.748Z,26.00
2019-03-13T06:14:43.539Z,26.00
2019-03-13T06:17:13.441Z,26.00
2019-03-13T06:19:43.407Z,26.00
2019-03-13T06:22:13.200Z,25.90
2019-03-13T06:24:43.343Z,26.00
2019-03-13T06:27:13.143Z,26.00
2019-03-13T06:29:42.931Z,26.00
2019-03-13T06:32:14.170Z,26.00
2019-03-13T06:34:45.072Z,26.00
2019-03-13T06:37:14.895Z,26.00
2019-03-13T06:39:44.697Z,26.00
2019-03-13T06:42:14.531Z,26.00
2019-03-13T06:44:44.326Z,26.00
2019-03-13T06:47:15.286Z,26.00
2019-03-13T06:49:45.731Z,26.00
2019-03-13T06:52:15.539Z,26.00
2019-03-13T06:54:45.346Z,26.00
2019-03-13T06:57:15.147Z,26.00
2019-03-13T07:00:19.017Z,26.00
2019-03-13T07:03:00.260Z,26.00
2019-03-13T07:05:48.286Z,26.00
2019-03-13T07:08:28.911Z,25.90
2019-03-13T07:11:19.908Z,25.90
2019-03-13T07:13:58.417Z,25.90
2019-03-13T07:16:48.813Z,26.10
2019-03-13T07:19:40.515Z,26.30
2019-03-13T07:22:17.794Z,26.50
2019-03-13T07:24:56.855Z,26.60
2019-03-13T07:27:37.338Z,26.70
2019-03-13T07:30:30.789Z,26.80
2019-03-13T07:33:37.215Z,26.70
2019-03-13T07:36:25.540Z,26.80
2019-03-13T07:39:11.446Z,26.90
2019-03-13T07:41:54.410Z,27.00
2019-03-13T07:44:47.290Z,27.10
2019-03-13T07:47:24.659Z,27.10
2019-03-13T07:50:11.469Z,27.10
2019-03-13T07:52:56.854Z,27.30
2019-03-13T07:55:38.467Z,27.30
2019-03-13T07:58:16.941Z,27.70
2019-03-13T08:01:11.767Z,27.70
2019-03-13T08:04:05.205Z,27.90
2019-03-13T08:06:53.837Z,27.90
2019-03-13T08:09:48.819Z,27.70
2019-03-13T08:12:37.894Z,27.50
2019-03-13T08:15:28.410Z,27.50
2019-03-13T08:18:19.914Z,27.40
2019-03-13T08:20:58.358Z,27.50
2019-03-13T08:23:54.142Z,27.70
2019-03-13T08:26:42.754Z,27.40
2019-03-13T08:29:28.585Z,27.60
2019-03-13T08:32:10.080Z,27.60
2019-03-13T08:35:00.768Z,27.60
2019-03-13T08:37:50.902Z,27.50
2019-03-13T08:40:43.295Z,27.50
2019-03-13T08:43:31.379Z,27.50
2019-03-13T08:46:12.720Z,27.40
2019-03-13T08:48:49.957Z,27.50
2019-03-13T08:51:30.834Z,27.40
2019-03-13T08:54:18.146Z,27.40
2019-03-13T08:57:10.154Z,27.40
2019-03-13T09:00:04.380Z,27.40
2019-03-13T09:02:57.071Z,27.40
2019-03-13T09:05:40.806Z,27.40
2019-03-13T09:08:28.723Z,27.30
2019-03-13T09:11:07.283Z,27.40
2019-03-13T09:13:57.553Z,27.30
2019-03-13T09:16:49.448Z,27.60
2019-03-13T09:19:32.158Z,27.70
2019-03-13T09:22:19.699Z,27.70
2019-03-13T09:25:11.748Z,27.70
2019-03-13T09:28:00.482Z,27.70
2019-03-13T09:30:40.043Z,27.70
2019-03-13T09:33:31.935Z,27.90
2019-03-13T09:36:16.446Z,28.00
2019-03-13T09:39:04.518Z,28.00
2019-03-13T09:41:43.205Z,27.90
2019-03-13T09:44:28.545Z,27.90
2019-03-13T09:47:06.429Z,27.90
2019-03-13T09:49:55.018Z,27.90
2019-03-13T09:52:41.598Z,27.90
2019-03-13T09:55:36.520Z,27.80
2019-03-13T09:58:30.142Z,27.80
2019-03-13T10:01:09.374Z,27.80
2019-03-13T10:03:54.013Z,27.70
2019-03-13T10:06:29.207Z,27.70
2019-03-13T10:09:16.799Z,27.70
2019-03-13T10:11:51.870Z,27.60
2019-03-13T10:14:42.939Z,27.60
2019-03-13T10:17:18.644Z,27.60
2019-03-13T10:20:10.396Z,27.50
2019-03-13T10:22:48.436Z,27.60
2019-03-13T10:25:36.019Z,27.50
2019-03-13T10:28:27.747Z,27.50
2019-03-13T10:31:12.147Z,27.40
2019-03-13T10:33:50.920Z,27.50
2019-03-13T10:36:33.894Z,27.50
2019-03-13T10:39:27.874Z,27.50
2019-03-13T10:42:12.984Z,27.40
2019-03-13T10:44:50.680Z,27.40
2019-03-13T10:47:31.994Z,27.40
2019-03-13T10:50:09.959Z,27.40
2019-03-13T10:52:59.681Z,27.40
2019-03-13T10:55:57.655Z,27.40
2019-03-13T10:58:40.998Z,27.40
2019-03-13T11:01:26.766Z,27.40
2019-03-13T11:04:10.691Z,27.40
2019-03-13T11:06:55.581Z,27.40
2019-03-13T11:09:34.310Z,27.30
2019-03-13T11:12:18.194Z,27.40
2019-03-13T11:15:13.065Z,27.30
2019-03-13T11:18:11.373Z,27.00
2019-03-13T11:20:56.163Z,27.40
2019-03-13T11:23:48.100Z,27.40
2019-03-13T11:26:37.908Z,27.50
2019-03-13T11:29:27.423Z,27.50
2019-03-13T11:32:10.710Z,27.50
2019-03-13T11:34:56.984Z,27.70
2019-03-13T11:37:40.438Z,27.80
2019-03-13T11:40:25.863Z,27.90
2019-03-13T11:43:08.328Z,28.00
2019-03-13T11:45:53.456Z,28.10
2019-03-13T11:48:31.734Z,28.10
2019-03-13T11:51:19.855Z,28.20
2019-03-13T11:53:59.390Z,28.20
2019-03-13T11:56:47.016Z,28.30
2019-03-13T11:59:27.852Z,28.30
2019-03-13T12:02:20.787Z,28.40
2019-03-13T12:05:12.981Z,28.40
2019-03-13T12:08:08.175Z,28.40
2019-03-13T12:10:44.658Z,28.60
2019-03-13T12:13:37.511Z,28.60
2019-03-13T12:16:26.762Z,28.60
2019-03-13T12:19:30.423Z,28.40
2019-03-13T12:22:13.084Z,28.40
2019-03-13T12:24:57.720Z,28.40
2019-03-13T12:28:00.361Z,28.30
2019-03-13T12:30:55.420Z,28.20
2019-03-13T12:33:34.568Z,28.10
2019-03-13T12:36:33.874Z,28.00
2019-03-13T12:39:25.095Z,28.20
2019-03-13T12:42:29.198Z,28.40
2019-03-13T12:45:27.330Z,28.40
2019-03-13T12:48:16.908Z,28.40
2019-03-13T12:51:08.386Z,28.60
2019-03-13T12:54:07.231Z,28.40
2019-03-13T12:56:54.900Z,28.30
2019-03-13T12:59:58.988Z,28.40
2019-03-13T13:02:54.929Z,28.40
2019-03-13T13:05:36.778Z,28.40
2019-03-13T13:08:17.110Z,28.40
2019-03-13T13:10:56.274Z,28.40
2019-03-13T13:13:55.505Z,28.40
2019-03-13T13:16:53.478Z,28.40
2019-03-13T13:19:24.663Z,28.40
2019-03-13T13:21:54.683Z,28.20
2019-03-13T13:24:24.614Z,28.20
2019-03-13T13:26:54.563Z,28.30
2019-03-13T13:29:26.487Z,28.20
2019-03-13T13:31:57.506Z,28.30
2019-03-13T13:34:28.235Z,28.30
2019-03-13T13:36:58.026Z,28.20
2019-03-13T13:39:28.126Z,28.20
2019-03-13T13:41:57.968Z,28.30
2019-03-13T13:44:27.730Z,28.30
2019-03-13T13:46:57.612Z,28.30
2019-03-13T13:49:27.452Z,28.30
2019-03-13T13:51:57.309Z,28.30
2019-03-13T13:54:27.158Z,28.30
2019-03-13T13:56:57.263Z,28.30
2019-03-13T13:59:27.058Z,28.30
2019-03-13T14:01:56.936Z,28.30
2019-03-13T14:04:26.723Z,28.30
2019-03-13T14:06:56.562Z,28.50
2019-03-13T14:09:27.246Z,28.40
2019-03-13T14:11:58.711Z,28.40
2019-03-13T14:14:28.525Z,28.50
2019-03-13T14:16:58.391Z,28.40
2019-03-13T14:19:28.258Z,28.20
2019-03-13T14:21:58.052Z,28.20
2019-03-13T14:24:27.987Z,28.10
2019-03-13T14:26:57.812Z,28.10
2019-03-13T14:29:28.154Z,28.20
2019-03-13T14:32:01.044Z,28.20
2019-03-13T14:34:30.805Z,28.20
2019-03-13T14:37:02.986Z,28.20
2019-03-13T14:39:33.080Z,28.20
2019-03-13T14:42:02.910Z,28.20
2019-03-13T14:44:32.734Z,28.20
2019-03-13T14:47:02.511Z,28.20
2019-03-13T14:49:32.299Z,28.20
2019-03-13T14:52:02.360Z,28.10
2019-03-13T14:54:32.398Z,28.20
2019-03-13T14:57:03.203Z,28.20
2019-03-13T14:59:34.177Z,28.30
2019-03-13T15:02:04.381Z,28.20
2019-03-13T15:04:34.695Z,28.10
2019-03-13T15:07:05.776Z,28.30
2019-03-13T15:09:38.038Z,28.20
2019-03-13T15:12:07.278Z,28.00
2019-03-13T15:14:37.091Z,27.90
2019-03-13T15:17:06.968Z,27.80
2019-03-13T15:19:36.861Z,27.90
2019-03-13T15:22:06.643Z,27.90
2019-03-13T15:24:36.454Z,27.90
2019-03-13T15:27:07.196Z,28.00
2019-03-13T15:29:38.558Z,28.00
2019-03-13T15:32:09.066Z,27.90
2019-03-13T15:34:41.495Z,27.90
2019-03-13T15:37:12.082Z,27.90
2019-03-13T15:39:41.846Z,27.90
2019-03-13T15:42:11.867Z,28.00
2019-03-13T15:44:41.691Z,28.10
2019-03-13T15:47:11.590Z,28.00
2019-03-13T15:49:42.070Z,28.10
2019-03-13T15:52:12.917Z,28.00
2019-03-13T15:54:43.376Z,28.10
2019-03-13T15:57:13.812Z,28.20
2019-03-13T15:59:43.589Z,28.10
2019-03-13T16:02:13.377Z,28.20
2019-03-13T16:04:43.158Z,28.20
2019-03-13T16:07:13.023Z,28.30
2019-03-13T16:09:42.967Z,28.30
2019-03-13T16:12:14.778Z,28.50
2019-03-13T16:14:44.637Z,28.30
2019-03-13T16:17:14.511Z,28.30
2019-03-13T16:19:44.378Z,28.40
2019-03-13T16:22:15.763Z,28.40
2019-03-13T16:24:45.554Z,28.40
2019-03-13T16:27:15.398Z,28.40
2019-03-13T16:29:48.077Z,28.40
2019-03-13T16:32:20.337Z,28.40
2019-03-13T16:34:51.378Z,28.40
2019-03-13T16:37:21.203Z,28.40
2019-03-13T16:39:52.214Z,28.40
2019-03-13T16:42:22.024Z,28.40
2019-03-13T16:44:51.902Z,28.50
2019-03-13T16:47:40.934Z,28.40
2019-03-13T16:50:13.532Z,28.40
2019-03-13T16:52:43.487Z,28.40
2019-03-13T16:55:15.284Z,28.40
2019-03-13T16:57:45.599Z,28.50
2019-03-13T17:00:18.832Z,28.50
2019-03-13T17:02:48.822Z,28.40
2019-03-13T17:05:18.956Z,28.50
2019-03-13T17:07:50.107Z,28.40
2019-03-13T17:10:20.935Z,28.40
2019-03-13T17:12:50.975Z,28.40
2019-03-13T17:15:21.279Z,28.40
2019-03-13T17:17:51.163Z,28.40
2019-03-13T17:20:25.983Z,28.50
2019-03-13T17:22:54.876Z,28.40
2019-03-13T17:25:25.358Z,28.50
2019-03-13T17:27:55.797Z,28.50
2019-03-13T17:30:26.699Z,28.50
2019-03-13T17:32:59.734Z,28.50
2019-03-13T17:35:30.126Z,28.50
2019-03-13T17:37:59.995Z,28.50
2019-03-13T17:40:31.145Z,28.50
2019-03-13T17:43:01.968Z,28.50
2019-03-13T17:45:31.785Z,28.50
2019-03-13T17:48:01.662Z,28.50
2019-03-13T17:50:31.524Z,28.50
2019-03-13T17:53:01.367Z,28.50
2019-03-13T17:55:32.182Z,28.50
2019-03-13T17:58:03.427Z,28.50
2019-03-13T18:00:39.431Z,28.50
2019-03-13T18:03:09.253Z,28.50
2019-03-13T18:05:58.282Z,28.40
2019-03-13T18:08:28.114Z,28.50
2019-03-13T18:10:58.063Z,28.50
2019-03-13T18:13:28.670Z,28.50
2019-03-13T18:15:58.670Z,28.40
2019-03-13T18:18:28.455Z,28.40
2019-03-13T18:20:58.415Z,28.40
2019-03-13T18:23:28.266Z,28.40
2019-03-13T18:26:00.479Z,28.40
2019-03-13T18:28:30.421Z,28.40
2019-03-13T18:31:02.044Z,28.40
2019-03-13T18:33:33.763Z,28.30
2019-03-13T18:36:05.431Z,28.40
2019-03-13T18:38:35.301Z,28.30
2019-03-13T18:41:05.131Z,28.40
2019-03-13T18:43:34.983Z,28.40
2019-03-13T18:46:04.779Z,28.30
2019-03-13T18:48:34.636Z,28.40
2019-03-13T18:51:17.415Z,28.30
2019-03-13T18:53:47.900Z,28.30
2019-03-13T18:56:17.689Z,28.30
2019-03-13T18:58:47.503Z,28.40
2019-03-13T19:01:17.324Z,28.40
2019-03-13T19:03:47.180Z,28.40
2019-03-13T19:06:17.131Z,28.40
2019-03-13T19:08:46.975Z,28.40
2019-03-13T19:11:19.070Z,28.40
2019-03-13T19:13:49.099Z,28.40
2019-03-13T19:16:18.958Z,28.40
2019-03-13T19:18:48.733Z,28.40
2019-03-13T19:21:18.511Z,28.40
2019-03-13T19:23:48.291Z,28.40
2019-03-13T19:26:18.172Z,28.40
2019-03-13T19:28:48.175Z,28.40
2019-03-13T19:31:18.027Z,28.40
2019-03-13T19:33:48.712Z,28.40
2019-03-13T19:36:19.086Z,28.40
2019-03-13T19:38:48.858Z,28.40
2019-03-13T19:41:18.659Z,28.40
2019-03-13T19:43:48.427Z,28.40
2019-03-13T19:46:18.209Z,28.40
2019-03-13T19:48:48.056Z,28.40
2019-03-13T19:51:19.048Z,28.40
2019-03-13T19:53:49.753Z,28.40
2019-03-13T19:56:19.603Z,28.40
2019-03-13T19:58:49.384Z,28.40
2019-03-13T20:01:19.411Z,28.40
2019-03-13T20:03:55.082Z,28.40
2019-03-13T20:06:20.766Z,28.40
2019-03-13T20:08:52.074Z,28.40
2019-03-13T20:11:22.234Z,28.40
2019-03-13T20:13:52.007Z,28.40
2019-03-13T20:16:21.917Z,28.40
2019-03-13T20:18:51.825Z,28.40
2019-03-13T20:21:21.637Z,28.40
2019-03-13T20:23:51.477Z,28.40
2019-03-13T20:26:21.345Z,28.40
2019-03-13T20:28:51.274Z,28.40
2019-03-13T20:31:21.193Z,28.40
2019-03-13T20:33:51.986Z,28.40
2019-03-13T20:36:22.852Z,28.40
2019-03-13T20:38:52.606Z,28.40
2019-03-13T20:41:22.473Z,28.40
2019-03-13T20:43:52.343Z,28.40
2019-03-13T20:46:22.285Z,28.40
2019-03-13T20:48:52.239Z,28.40
2019-03-13T20:51:22.024Z,28.40
2019-03-13T20:53:55.606Z,28.40
2019-03-13T20:56:25.389Z,28.40
2019-03-13T20:58:55.165Z,28.40
2019-03-13T21:01:25.025Z,28.40
2019-03-13T21:03:54.961Z,28.40
2019-03-13T21:06:25.407Z,28.40
2019-03-13T21:08:56.442Z,28.40
2019-03-13T21:11:26.362Z,28.30
2019-03-13T21:13:56.130Z,28.40
2019-03-13T21:16:25.975Z,28.30
2019-03-13T21:18:55.762Z,28.30
2019-03-13T21:21:25.599Z,28.40
2019-03-13T21:23:55.374Z,28.30
2019-03-13T21:26:25.726Z,28.40
2019-03-13T21:28:55.515Z,28.30
2019-03-13T21:31:25.378Z,28.30
2019-03-13T21:33:57.928Z,28.40
2019-03-13T21:36:27.950Z,28.30
2019-03-13T21:38:57.726Z,28.30
2019-03-13T21:41:27.540Z,28.40
2019-03-13T21:43:57.341Z,28.30
2019-03-13T21:46:27.114Z,28.40
2019-03-13T21:48:56.942Z,28.30
2019-03-13T21:51:26.820Z,28.70
2019-03-13T21:53:58.286Z,28.40
2019-03-13T21:56:28.062Z,28.30
2019-03-13T21:58:57.871Z,28.30
2019-03-13T22:01:27.682Z,28.30
2019-03-13T22:03:57.451Z,28.30
2019-03-13T22:06:29.090Z,28.40
2019-03-13T22:08:58.865Z,28.30
2019-03-13T22:11:28.678Z,28.30
2019-03-13T22:13:58.446Z,28.30
2019-03-13T22:16:28.231Z,28.30
2019-03-13T22:18:57.999Z,28.30
2019-03-13T22:21:27.886Z,28.40
2019-03-13T22:23:57.658Z,28.30
2019-03-13T22:26:27.680Z,28.30
2019-03-13T22:28:57.458Z,28.30
2019-03-13T22:31:27.567Z,28.30
2019-03-13T22:33:57.626Z,28.30
2019-03-13T22:36:28.050Z,28.30
2019-03-13T22:38:57.822Z,28.30
2019-03-13T22:41:27.598Z,28.30
2019-03-13T22:43:57.395Z,28.30
2019-03-13T22:46:27.209Z,28.30
2019-03-13T22:48:58.850Z,28.30
2019-03-13T22:51:28.629Z,28.30
2019-03-13T22:54:00.924Z,28.70
2019-03-13T22:56:30.774Z,28.30
2019-03-13T22:59:00.560Z,28.30
2019-03-13T23:01:30.602Z,28.30
2019-03-13T23:04:00.384Z,28.30
2019-03-13T23:06:30.217Z,28.30
2019-03-13T23:09:00.093Z,28.30
2019-03-13T23:11:29.881Z,28.30
2019-03-13T23:13:59.779Z,28.40
2019-03-13T23:16:29.647Z,28.30
2019-03-13T23:18:59.423Z,28.30
2019-03-13T23:21:29.202Z,28.30
2019-03-13T23:23:58.993Z,28.30
2019-03-13T23:26:28.889Z,28.30
2019-03-13T23:28:58.660Z,28.30
2019-03-13T23:31:29.035Z,28.30
2019-03-13T23:34:01.819Z,28.30
2019-03-13T23:36:32.959Z,28.30
2019-03-13T23:39:03.010Z,28.30
2019-03-13T23:41:32.799Z,28.30
2019-03-13T23:44:02.606Z,28.30
2019-03-13T23:46:32.382Z,28.30
2019-03-13T23:49:02.179Z,28.30
2019-03-13T23:51:31.956Z,28.30
2019-03-13T23:54:01.863Z,28.30
2019-03-13T23:56:32.683Z,28.30
2019-03-13T23:59:02.466Z,28.30
